sensor_id;sensor_type;location;lat;lon;timestamp;P1;durP1;ratioP1;P2;durP2;ratioP2
29504;SDS011;16452;54.174;12.092;2023-02-20T00:00:20;8.93;;;1.92;;
29504;SDS011;16452;54.174;12.092;2023-02-20T00:02:52;10.07;;;2.17;;
29504;SDS011;16452;54.174;12.092;2023-02-20T00:05:18;7.63;;;1.95;;
29504;SDS011;16452;54.174;12.092;2023-02-20T00:07:44;14.43;;;2.58;;
29504;SDS011;16452;54.174;12.092;2023-02-20T00:10:10;10.13;;;1.90;;
29504;SDS011;16452;54.174;12.092;2023-02-20T00:12:36;14.45;;;3.05;;
29504;SDS011;16452;54.174;12.092;2023-02-20T00:15:03;13.10;;;2.20;;
29504;SDS011;16452;54.174;12.092;2023-02-20T00:17:29;12.93;;;1.98;;
29504;SDS011;16452;54.174;12.092;2023-02-20T00:19:55;14.98;;;2.00;;
29504;SDS011;16452;54.174;12.092;2023-02-20T00:22:21;14.57;;;2.20;;
29504;SDS011;16452;54.174;12.092;2023-02-20T00:24:48;12.20;;;1.80;;
29504;SDS011;16452;54.174;12.092;2023-02-20T00:27:15;9.70;;;1.80;;
29504;SDS011;16452;54.174;12.092;2023-02-20T00:29:42;9.27;;;2.00;;
29504;SDS011;16452;54.174;12.092;2023-02-20T00:32:10;10.63;;;2.35;;
29504;SDS011;16452;54.174;12.092;2023-02-20T00:34:36;8.93;;;2.30;;
29504;SDS011;16452;54.174;12.092;2023-02-20T00:37:01;11.25;;;2.08;;
29504;SDS011;16452;54.174;12.092;2023-02-20T00:39:27;8.35;;;2.10;;
29504;SDS011;16452;54.174;12.092;2023-02-20T00:41:53;8.98;;;2.38;;
29504;SDS011;16452;54.174;12.092;2023-02-20T00:44:20;8.20;;;2.50;;
29504;SDS011;16452;54.174;12.092;2023-02-20T00:46:46;11.18;;;2.70;;
29504;SDS011;16452;54.174;12.092;2023-02-20T00:49:12;9.45;;;2.33;;
29504;SDS011;16452;54.174;12.092;2023-02-20T00:51:38;7.53;;;2.80;;
29504;SDS011;16452;54.174;12.092;2023-02-20T00:54:03;7.88;;;2.35;;
29504;SDS011;16452;54.174;12.092;2023-02-20T00:56:30;10.82;;;2.63;;
29504;SDS011;16452;54.174;12.092;2023-02-20T00:58:56;10.68;;;3.47;;
29504;SDS011;16452;54.174;12.092;2023-02-20T01:01:21;6.70;;;2.72;;
29504;SDS011;16452;54.174;12.092;2023-02-20T01:03:48;8.98;;;2.95;;
29504;SDS011;16452;54.174;12.092;2023-02-20T01:06:14;8.35;;;2.83;;
29504;SDS011;16452;54.174;12.092;2023-02-20T01:08:40;7.13;;;2.88;;
29504;SDS011;16452;54.174;12.092;2023-02-20T01:11:06;8.43;;;2.85;;
29504;SDS011;16452;54.174;12.092;2023-02-20T01:13:32;9.68;;;2.60;;
29504;SDS011;16452;54.174;12.092;2023-02-20T01:15:58;10.07;;;2.83;;
29504;SDS011;16452;54.174;12.092;2023-02-20T01:18:24;10.13;;;2.90;;
29504;SDS011;16452;54.174;12.092;2023-02-20T01:20:50;8.55;;;2.90;;
29504;SDS011;16452;54.174;12.092;2023-02-20T01:23:15;8.25;;;3.10;;
29504;SDS011;16452;54.174;12.092;2023-02-20T01:25:41;8.30;;;2.85;;
29504;SDS011;16452;54.174;12.092;2023-02-20T01:28:07;13.13;;;3.22;;
29504;SDS011;16452;54.174;12.092;2023-02-20T01:30:32;7.10;;;2.50;;
29504;SDS011;16452;54.174;12.092;2023-02-20T01:32:58;5.78;;;2.33;;
29504;SDS011;16452;54.174;12.092;2023-02-20T01:35:24;5.88;;;2.60;;
29504;SDS011;16452;54.174;12.092;2023-02-20T01:37:54;7.40;;;2.63;;
29504;SDS011;16452;54.174;12.092;2023-02-20T01:40:21;9.70;;;2.80;;
29504;SDS011;16452;54.174;12.092;2023-02-20T01:42:47;11.93;;;2.92;;
29504;SDS011;16452;54.174;12.092;2023-02-20T01:47:49;10.20;;;3.60;;
29504;SDS011;16452;54.174;12.092;2023-02-20T01:50:22;10.50;;;3.40;;
29504;SDS011;16452;54.174;12.092;2023-02-20T01:52:57;13.32;;;3.47;;
29504;SDS011;16452;54.174;12.092;2023-02-20T01:55:32;10.75;;;3.45;;
29504;SDS011;16452;54.174;12.092;2023-02-20T01:58:25;7.82;;;3.03;;
29504;SDS011;16452;54.174;12.092;2023-02-20T02:00:59;7.53;;;3.22;;
29504;SDS011;16452;54.174;12.092;2023-02-20T02:03:28;9.68;;;3.30;;
29504;SDS011;16452;54.174;12.092;2023-02-20T02:06:00;7.40;;;2.80;;
29504;SDS011;16452;54.174;12.092;2023-02-20T02:08:30;8.65;;;3.15;;
29504;SDS011;16452;54.174;12.092;2023-02-20T02:11:00;8.98;;;3.03;;
29504;SDS011;16452;54.174;12.092;2023-02-20T02:13:28;7.75;;;2.80;;
29504;SDS011;16452;54.174;12.092;2023-02-20T02:16:17;6.78;;;2.70;;
29504;SDS011;16452;54.174;12.092;2023-02-20T02:34:11;8.57;;;2.50;;
29504;SDS011;16452;54.174;12.092;2023-02-20T02:39:58;5.15;;;2.70;;
29504;SDS011;16452;54.174;12.092;2023-02-20T02:43:15;5.57;;;2.80;;
29504;SDS011;16452;54.174;12.092;2023-02-20T02:46:00;8.30;;;2.83;;
29504;SDS011;16452;54.174;12.092;2023-02-20T02:48:40;6.43;;;2.72;;
29504;SDS011;16452;54.174;12.092;2023-02-20T02:51:20;6.85;;;2.92;;
29504;SDS011;16452;54.174;12.092;2023-02-20T02:54:05;7.20;;;3.25;;
29504;SDS011;16452;54.174;12.092;2023-02-20T02:56:39;6.65;;;3.10;;
29504;SDS011;16452;54.174;12.092;2023-02-20T02:59:10;8.75;;;2.95;;
29504;SDS011;16452;54.174;12.092;2023-02-20T03:02:00;7.07;;;3.33;;
29504;SDS011;16452;54.174;12.092;2023-02-20T03:04:32;5.32;;;2.88;;
29504;SDS011;16452;54.174;12.092;2023-02-20T03:07:08;8.05;;;3.30;;
29504;SDS011;16452;54.174;12.092;2023-02-20T03:09:47;8.27;;;3.58;;
29504;SDS011;16452;54.174;12.092;2023-02-20T03:12:27;7.57;;;3.63;;
29504;SDS011;16452;54.174;12.092;2023-02-20T03:14:58;6.53;;;3.50;;
29504;SDS011;16452;54.174;12.092;2023-02-20T03:21:05;7.43;;;3.17;;
29504;SDS011;16452;54.174;12.092;2023-02-20T03:23:37;10.88;;;3.65;;
29504;SDS011;16452;54.174;12.092;2023-02-20T03:26:09;11.00;;;4.25;;
29504;SDS011;16452;54.174;12.092;2023-02-20T03:28:42;8.43;;;4.10;;
29504;SDS011;16452;54.174;12.092;2023-02-20T03:31:24;12.27;;;4.53;;
29504;SDS011;16452;54.174;12.092;2023-02-20T03:34:08;6.53;;;3.88;;
29504;SDS011;16452;54.174;12.092;2023-02-20T03:37:09;8.40;;;4.30;;
29504;SDS011;16452;54.174;12.092;2023-02-20T03:40:04;7.22;;;4.15;;
29504;SDS011;16452;54.174;12.092;2023-02-20T03:42:55;9.93;;;4.43;;
29504;SDS011;16452;54.174;12.092;2023-02-20T03:45:44;12.68;;;4.47;;
29504;SDS011;16452;54.174;12.092;2023-02-20T03:51:10;10.15;;;4.50;;
29504;SDS011;16452;54.174;12.092;2023-02-20T03:53:43;8.10;;;4.47;;
29504;SDS011;16452;54.174;12.092;2023-02-20T03:56:12;8.75;;;4.50;;
29504;SDS011;16452;54.174;12.092;2023-02-20T03:58:48;7.28;;;4.70;;
29504;SDS011;16452;54.174;12.092;2023-02-20T04:01:20;12.52;;;4.50;;
29504;SDS011;16452;54.174;12.092;2023-02-20T04:03:49;10.98;;;5.05;;
29504;SDS011;16452;54.174;12.092;2023-02-20T04:06:18;10.52;;;5.47;;
29504;SDS011;16452;54.174;12.092;2023-02-20T04:09:08;6.85;;;4.97;;
29504;SDS011;16452;54.174;12.092;2023-02-20T04:11:46;8.82;;;5.03;;
29504;SDS011;16452;54.174;12.092;2023-02-20T04:14:18;9.95;;;5.10;;
29504;SDS011;16452;54.174;12.092;2023-02-20T04:16:50;13.55;;;5.82;;
29504;SDS011;16452;54.174;12.092;2023-02-20T04:19:22;9.35;;;5.32;;
29504;SDS011;16452;54.174;12.092;2023-02-20T04:21:52;9.63;;;5.55;;
29504;SDS011;16452;54.174;12.092;2023-02-20T04:24:34;10.82;;;5.60;;
29504;SDS011;16452;54.174;12.092;2023-02-20T04:27:15;9.50;;;5.35;;
29504;SDS011;16452;54.174;12.092;2023-02-20T04:29:41;9.55;;;5.55;;
29504;SDS011;16452;54.174;12.092;2023-02-20T04:32:07;10.98;;;5.30;;
29504;SDS011;16452;54.174;12.092;2023-02-20T04:34:32;9.13;;;5.38;;
29504;SDS011;16452;54.174;12.092;2023-02-20T04:37:08;10.07;;;5.57;;
29504;SDS011;16452;54.174;12.092;2023-02-20T04:39:40;8.63;;;4.85;;
29504;SDS011;16452;54.174;12.092;2023-02-20T04:42:07;9.90;;;5.57;;
29504;SDS011;16452;54.174;12.092;2023-02-20T04:44:32;11.52;;;5.90;;
29504;SDS011;16452;54.174;12.092;2023-02-20T04:47:06;9.50;;;5.70;;
29504;SDS011;16452;54.174;12.092;2023-02-20T04:49:36;11.50;;;5.57;;
29504;SDS011;16452;54.174;12.092;2023-02-20T04:52:02;7.65;;;5.60;;
29504;SDS011;16452;54.174;12.092;2023-02-20T04:54:28;9.15;;;5.30;;
29504;SDS011;16452;54.174;12.092;2023-02-20T04:56:54;13.23;;;5.90;;
29504;SDS011;16452;54.174;12.092;2023-02-20T04:59:19;11.50;;;6.40;;
29504;SDS011;16452;54.174;12.092;2023-02-20T05:01:45;10.43;;;6.05;;
29504;SDS011;16452;54.174;12.092;2023-02-20T05:04:16;10.80;;;6.00;;
29504;SDS011;16452;54.174;12.092;2023-02-20T05:06:47;13.20;;;6.07;;
29504;SDS011;16452;54.174;12.092;2023-02-20T05:09:18;11.13;;;5.97;;
29504;SDS011;16452;54.174;12.092;2023-02-20T05:11:44;9.43;;;6.07;;
29504;SDS011;16452;54.174;12.092;2023-02-20T05:14:10;11.27;;;6.05;;
29504;SDS011;16452;54.174;12.092;2023-02-20T05:16:37;11.52;;;6.32;;
29504;SDS011;16452;54.174;12.092;2023-02-20T05:19:04;9.65;;;5.85;;
29504;SDS011;16452;54.174;12.092;2023-02-20T05:21:31;11.82;;;6.25;;
29504;SDS011;16452;54.174;12.092;2023-02-20T05:24:15;11.65;;;6.88;;
29504;SDS011;16452;54.174;12.092;2023-02-20T05:26:41;14.27;;;6.68;;
29504;SDS011;16452;54.174;12.092;2023-02-20T05:29:07;13.27;;;6.72;;
29504;SDS011;16452;54.174;12.092;2023-02-20T05:31:36;11.82;;;6.38;;
29504;SDS011;16452;54.174;12.092;2023-02-20T05:34:03;14.20;;;6.95;;
29504;SDS011;16452;54.174;12.092;2023-02-20T05:36:29;16.08;;;7.05;;
29504;SDS011;16452;54.174;12.092;2023-02-20T05:38:55;12.10;;;7.63;;
29504;SDS011;16452;54.174;12.092;2023-02-20T05:41:21;14.48;;;7.18;;
29504;SDS011;16452;54.174;12.092;2023-02-20T05:43:46;14.85;;;7.40;;
29504;SDS011;16452;54.174;12.092;2023-02-20T05:46:13;12.85;;;7.60;;
29504;SDS011;16452;54.174;12.092;2023-02-20T05:48:40;12.25;;;7.25;;
29504;SDS011;16452;54.174;12.092;2023-02-20T05:51:05;12.20;;;7.25;;
29504;SDS011;16452;54.174;12.092;2023-02-20T05:53:31;13.52;;;7.93;;
29504;SDS011;16452;54.174;12.092;2023-02-20T05:55:58;17.48;;;8.10;;
29504;SDS011;16452;54.174;12.092;2023-02-20T05:58:24;15.40;;;8.48;;
29504;SDS011;16452;54.174;12.092;2023-02-20T06:00:50;11.98;;;7.15;;
29504;SDS011;16452;54.174;12.092;2023-02-20T06:03:16;12.10;;;8.10;;
29504;SDS011;16452;54.174;12.092;2023-02-20T06:05:42;12.75;;;8.07;;
29504;SDS011;16452;54.174;12.092;2023-02-20T06:08:08;13.27;;;8.48;;
29504;SDS011;16452;54.174;12.092;2023-02-20T06:10:34;14.10;;;8.32;;
29504;SDS011;16452;54.174;12.092;2023-02-20T06:13:00;16.60;;;9.13;;
29504;SDS011;16452;54.174;12.092;2023-02-20T06:15:26;12.88;;;8.40;;
29504;SDS011;16452;54.174;12.092;2023-02-20T06:17:52;14.73;;;9.52;;
29504;SDS011;16452;54.174;12.092;2023-02-20T06:20:18;15.90;;;9.05;;
29504;SDS011;16452;54.174;12.092;2023-02-20T06:22:46;13.35;;;9.38;;
29504;SDS011;16452;54.174;12.092;2023-02-20T06:25:14;15.45;;;9.52;;
29504;SDS011;16452;54.174;12.092;2023-02-20T06:27:41;16.23;;;9.35;;
29504;SDS011;16452;54.174;12.092;2023-02-20T06:30:06;14.38;;;9.15;;
29504;SDS011;16452;54.174;12.092;2023-02-20T06:32:33;17.77;;;9.75;;
29504;SDS011;16452;54.174;12.092;2023-02-20T06:34:59;13.40;;;9.38;;
29504;SDS011;16452;54.174;12.092;2023-02-20T06:37:24;14.75;;;9.65;;
29504;SDS011;16452;54.174;12.092;2023-02-20T06:39:50;17.10;;;9.70;;
29504;SDS011;16452;54.174;12.092;2023-02-20T06:42:16;17.02;;;9.98;;
29504;SDS011;16452;54.174;12.092;2023-02-20T06:44:41;14.70;;;10.70;;
29504;SDS011;16452;54.174;12.092;2023-02-20T06:47:07;15.43;;;10.45;;
29504;SDS011;16452;54.174;12.092;2023-02-20T06:49:34;15.55;;;10.35;;
29504;SDS011;16452;54.174;12.092;2023-02-20T06:52:00;19.08;;;11.05;;
29504;SDS011;16452;54.174;12.092;2023-02-20T06:54:26;15.63;;;10.80;;
29504;SDS011;16452;54.174;12.092;2023-02-20T06:56:52;18.55;;;10.88;;
29504;SDS011;16452;54.174;12.092;2023-02-20T06:59:18;18.20;;;11.43;;
29504;SDS011;16452;54.174;12.092;2023-02-20T07:01:43;18.48;;;11.10;;
29504;SDS011;16452;54.174;12.092;2023-02-20T07:04:16;17.95;;;11.23;;
29504;SDS011;16452;54.174;12.092;2023-02-20T07:06:48;19.10;;;11.38;;
29504;SDS011;16452;54.174;12.092;2023-02-20T07:09:14;17.58;;;11.55;;
29504;SDS011;16452;54.174;12.092;2023-02-20T07:11:40;18.63;;;11.75;;
29504;SDS011;16452;54.174;12.092;2023-02-20T07:14:07;19.42;;;11.50;;
29504;SDS011;16452;54.174;12.092;2023-02-20T07:16:33;16.02;;;11.10;;
29504;SDS011;16452;54.174;12.092;2023-02-20T07:18:59;15.65;;;11.05;;
29504;SDS011;16452;54.174;12.092;2023-02-20T07:21:25;19.77;;;11.80;;
29504;SDS011;16452;54.174;12.092;2023-02-20T07:23:50;17.08;;;11.52;;
29504;SDS011;16452;54.174;12.092;2023-02-20T07:26:21;18.58;;;11.82;;
29504;SDS011;16452;54.174;12.092;2023-02-20T07:28:53;18.10;;;11.68;;
29504;SDS011;16452;54.174;12.092;2023-02-20T07:31:19;16.75;;;11.50;;
29504;SDS011;16452;54.174;12.092;2023-02-20T07:33:45;20.08;;;11.57;;
29504;SDS011;16452;54.174;12.092;2023-02-20T07:36:12;19.88;;;11.63;;
29504;SDS011;16452;54.174;12.092;2023-02-20T07:38:39;18.30;;;12.48;;
29504;SDS011;16452;54.174;12.092;2023-02-20T07:41:17;15.32;;;11.10;;
29504;SDS011;16452;54.174;12.092;2023-02-20T07:43:42;17.63;;;11.98;;
29504;SDS011;16452;54.174;12.092;2023-02-20T07:46:09;17.52;;;11.05;;
29504;SDS011;16452;54.174;12.092;2023-02-20T07:48:34;19.25;;;11.55;;
29504;SDS011;16452;54.174;12.092;2023-02-20T07:51:00;20.73;;;12.02;;
29504;SDS011;16452;54.174;12.092;2023-02-20T07:53:26;16.92;;;10.85;;
29504;SDS011;16452;54.174;12.092;2023-02-20T07:55:52;14.02;;;10.57;;
29504;SDS011;16452;54.174;12.092;2023-02-20T07:58:18;15.27;;;11.00;;
29504;SDS011;16452;54.174;12.092;2023-02-20T08:00:44;14.90;;;11.75;;
29504;SDS011;16452;54.174;12.092;2023-02-20T08:03:10;16.85;;;11.88;;
29504;SDS011;16452;54.174;12.092;2023-02-20T08:05:36;17.35;;;11.68;;
29504;SDS011;16452;54.174;12.092;2023-02-20T08:08:02;19.60;;;12.10;;
29504;SDS011;16452;54.174;12.092;2023-02-20T08:10:28;19.02;;;12.77;;
29504;SDS011;16452;54.174;12.092;2023-02-20T08:12:54;20.52;;;12.77;;
29504;SDS011;16452;54.174;12.092;2023-02-20T08:15:21;17.08;;;11.05;;
29504;SDS011;16452;54.174;12.092;2023-02-20T08:17:47;19.33;;;11.82;;
29504;SDS011;16452;54.174;12.092;2023-02-20T08:20:14;20.75;;;12.88;;
29504;SDS011;16452;54.174;12.092;2023-02-20T08:22:43;19.45;;;12.35;;
29504;SDS011;16452;54.174;12.092;2023-02-20T08:25:10;17.17;;;12.15;;
29504;SDS011;16452;54.174;12.092;2023-02-20T08:27:40;21.50;;;12.48;;
29504;SDS011;16452;54.174;12.092;2023-02-20T08:30:12;20.17;;;12.77;;
29504;SDS011;16452;54.174;12.092;2023-02-20T08:32:43;21.35;;;13.18;;
29504;SDS011;16452;54.174;12.092;2023-02-20T08:35:08;20.95;;;13.25;;
29504;SDS011;16452;54.174;12.092;2023-02-20T08:37:34;25.63;;;13.68;;
29504;SDS011;16452;54.174;12.092;2023-02-20T08:40:00;19.90;;;12.45;;
29504;SDS011;16452;54.174;12.092;2023-02-20T08:42:32;24.73;;;13.70;;
29504;SDS011;16452;54.174;12.092;2023-02-20T08:44:58;29.23;;;12.73;;
29504;SDS011;16452;54.174;12.092;2023-02-20T08:47:25;21.55;;;12.85;;
29504;SDS011;16452;54.174;12.092;2023-02-20T08:49:51;23.25;;;13.35;;
29504;SDS011;16452;54.174;12.092;2023-02-20T08:52:17;21.42;;;13.15;;
29504;SDS011;16452;54.174;12.092;2023-02-20T08:54:44;22.35;;;13.50;;
29504;SDS011;16452;54.174;12.092;2023-02-20T08:57:11;23.77;;;13.65;;
29504;SDS011;16452;54.174;12.092;2023-02-20T08:59:38;22.20;;;13.75;;
29504;SDS011;16452;54.174;12.092;2023-02-20T09:02:04;23.08;;;13.18;;
29504;SDS011;16452;54.174;12.092;2023-02-20T09:04:30;20.98;;;13.02;;
29504;SDS011;16452;54.174;12.092;2023-02-20T09:06:57;23.05;;;14.00;;
29504;SDS011;16452;54.174;12.092;2023-02-20T09:09:22;21.10;;;13.63;;
29504;SDS011;16452;54.174;12.092;2023-02-20T09:11:48;21.58;;;13.20;;
29504;SDS011;16452;54.174;12.092;2023-02-20T09:14:14;23.88;;;14.02;;
29504;SDS011;16452;54.174;12.092;2023-02-20T09:16:40;23.33;;;13.70;;
29504;SDS011;16452;54.174;12.092;2023-02-20T09:19:09;24.88;;;13.20;;
29504;SDS011;16452;54.174;12.092;2023-02-20T09:21:35;24.52;;;14.23;;
29504;SDS011;16452;54.174;12.092;2023-02-20T09:24:01;25.20;;;13.70;;
29504;SDS011;16452;54.174;12.092;2023-02-20T09:26:29;26.80;;;14.45;;
29504;SDS011;16452;54.174;12.092;2023-02-20T09:28:55;25.75;;;14.70;;
29504;SDS011;16452;54.174;12.092;2023-02-20T09:31:20;25.75;;;14.43;;
29504;SDS011;16452;54.174;12.092;2023-02-20T09:33:46;25.98;;;14.35;;
29504;SDS011;16452;54.174;12.092;2023-02-20T09:36:12;25.23;;;14.55;;
29504;SDS011;16452;54.174;12.092;2023-02-20T09:38:38;25.63;;;14.60;;
29504;SDS011;16452;54.174;12.092;2023-02-20T09:41:04;24.90;;;14.30;;
29504;SDS011;16452;54.174;12.092;2023-02-20T09:46:20;33.15;;;15.82;;
29504;SDS011;16452;54.174;12.092;2023-02-20T09:51:20;30.10;;;15.50;;
29504;SDS011;16452;54.174;12.092;2023-02-20T09:53:51;27.65;;;15.55;;
29504;SDS011;16452;54.174;12.092;2023-02-20T09:56:28;28.15;;;15.98;;
29504;SDS011;16452;54.174;12.092;2023-02-20T09:59:21;28.20;;;15.93;;
29504;SDS011;16452;54.174;12.092;2023-02-20T10:02:03;31.08;;;16.17;;
29504;SDS011;16452;54.174;12.092;2023-02-20T10:05:03;31.40;;;16.10;;
29504;SDS011;16452;54.174;12.092;2023-02-20T10:07:43;29.65;;;16.52;;
29504;SDS011;16452;54.174;12.092;2023-02-20T10:10:21;27.23;;;16.90;;
29504;SDS011;16452;54.174;12.092;2023-02-20T10:18:59;29.33;;;16.40;;
29504;SDS011;16452;54.174;12.092;2023-02-20T10:30:31;22.05;;;13.35;;
29504;SDS011;16452;54.174;12.092;2023-02-20T10:39:04;26.17;;;15.10;;
29504;SDS011;16452;54.174;12.092;2023-02-20T10:47:19;25.45;;;13.77;;
29504;SDS011;16452;54.174;12.092;2023-02-20T10:52:58;25.45;;;11.65;;
29504;SDS011;16452;54.174;12.092;2023-02-20T10:55:48;27.85;;;11.57;;
29504;SDS011;16452;54.174;12.092;2023-02-20T11:01:30;29.75;;;11.82;;
29504;SDS011;16452;54.174;12.092;2023-02-20T11:06:46;27.23;;;9.65;;
29504;SDS011;16452;54.174;12.092;2023-02-20T11:09:22;21.48;;;9.27;;
29504;SDS011;16452;54.174;12.092;2023-02-20T11:11:49;19.48;;;9.25;;
29504;SDS011;16452;54.174;12.092;2023-02-20T11:19:53;28.80;;;8.60;;
29504;SDS011;16452;54.174;12.092;2023-02-20T11:25:17;23.75;;;7.03;;
29504;SDS011;16452;54.174;12.092;2023-02-20T11:30:57;23.27;;;7.18;;
29504;SDS011;16452;54.174;12.092;2023-02-20T11:33:29;25.23;;;6.82;;
29504;SDS011;16452;54.174;12.092;2023-02-20T11:36:11;25.92;;;6.40;;
29504;SDS011;16452;54.174;12.092;2023-02-20T11:38:45;19.38;;;6.38;;
29504;SDS011;16452;54.174;12.092;2023-02-20T11:41:17;20.10;;;5.93;;
29504;SDS011;16452;54.174;12.092;2023-02-20T11:44:07;20.30;;;6.65;;
29504;SDS011;16452;54.174;12.092;2023-02-20T11:46:43;24.13;;;6.22;;
29504;SDS011;16452;54.174;12.092;2023-02-20T11:51:52;25.63;;;5.65;;
29504;SDS011;16452;54.174;12.092;2023-02-20T11:54:41;17.67;;;5.75;;
29504;SDS011;16452;54.174;12.092;2023-02-20T11:57:18;18.90;;;5.75;;
29504;SDS011;16452;54.174;12.092;2023-02-20T12:02:47;26.40;;;5.53;;
29504;SDS011;16452;54.174;12.092;2023-02-20T12:05:14;28.48;;;6.97;;
29504;SDS011;16452;54.174;12.092;2023-02-20T12:12:55;24.75;;;6.05;;
29504;SDS011;16452;54.174;12.092;2023-02-20T12:15:23;25.13;;;6.05;;
29504;SDS011;16452;54.174;12.092;2023-02-20T12:20:31;19.98;;;5.90;;
29504;SDS011;16452;54.174;12.092;2023-02-20T12:23:04;26.08;;;6.50;;
29504;SDS011;16452;54.174;12.092;2023-02-20T12:25:55;31.63;;;6.88;;
29504;SDS011;16452;54.174;12.092;2023-02-20T12:32:04;26.55;;;6.85;;
29504;SDS011;16452;54.174;12.092;2023-02-20T12:43:22;24.08;;;6.38;;
29504;SDS011;16452;54.174;12.092;2023-02-20T12:57:50;26.58;;;6.07;;
29504;SDS011;16452;54.174;12.092;2023-02-20T13:00:40;27.15;;;5.57;;
29504;SDS011;16452;54.174;12.092;2023-02-20T13:06:10;26.45;;;6.07;;
29504;SDS011;16452;54.174;12.092;2023-02-20T13:12:08;25.95;;;5.95;;
29504;SDS011;16452;54.174;12.092;2023-02-20T13:17:51;29.90;;;6.88;;
29504;SDS011;16452;54.174;12.092;2023-02-20T13:20:45;29.27;;;6.85;;
29504;SDS011;16452;54.174;12.092;2023-02-20T13:25:43;26.98;;;6.45;;
29504;SDS011;16452;54.174;12.092;2023-02-20T13:31:06;33.38;;;6.15;;
29504;SDS011;16452;54.174;12.092;2023-02-20T13:46:57;36.78;;;6.55;;
29504;SDS011;16452;54.174;12.092;2023-02-20T13:57:41;20.23;;;6.03;;
29504;SDS011;16452;54.174;12.092;2023-02-20T14:03:20;28.38;;;6.63;;
29504;SDS011;16452;54.174;12.092;2023-02-20T14:06:01;30.42;;;7.20;;
29504;SDS011;16452;54.174;12.092;2023-02-20T14:08:33;25.40;;;6.80;;
29504;SDS011;16452;54.174;12.092;2023-02-20T14:11:09;25.00;;;6.63;;
29504;SDS011;16452;54.174;12.092;2023-02-20T14:13:53;25.95;;;6.63;;
29504;SDS011;16452;54.174;12.092;2023-02-20T14:18:59;21.48;;;6.85;;
29504;SDS011;16452;54.174;12.092;2023-02-20T14:21:30;28.27;;;7.53;;
29504;SDS011;16452;54.174;12.092;2023-02-20T14:24:10;25.02;;;6.47;;
29504;SDS011;16452;54.174;12.092;2023-02-20T14:26:48;30.85;;;6.63;;
29504;SDS011;16452;54.174;12.092;2023-02-20T14:29:26;23.00;;;5.50;;
29504;SDS011;16452;54.174;12.092;2023-02-20T14:31:59;20.95;;;5.53;;
29504;SDS011;16452;54.174;12.092;2023-02-20T14:37:29;28.45;;;6.20;;
29504;SDS011;16452;54.174;12.092;2023-02-20T14:40:17;21.38;;;5.93;;
29504;SDS011;16452;54.174;12.092;2023-02-20T14:43:00;24.40;;;5.65;;
29504;SDS011;16452;54.174;12.092;2023-02-20T14:45:32;19.58;;;5.78;;
29504;SDS011;16452;54.174;12.092;2023-02-20T14:47:59;23.38;;;5.93;;
29504;SDS011;16452;54.174;12.092;2023-02-20T14:50:26;23.30;;;6.53;;
29504;SDS011;16452;54.174;12.092;2023-02-20T14:55:26;17.75;;;5.15;;
29504;SDS011;16452;54.174;12.092;2023-02-20T14:57:52;22.63;;;5.95;;
29504;SDS011;16452;54.174;12.092;2023-02-20T15:02:51;24.02;;;6.50;;
29504;SDS011;16452;54.174;12.092;2023-02-20T15:05:25;19.02;;;5.22;;
29504;SDS011;16452;54.174;12.092;2023-02-20T15:08:02;24.35;;;5.93;;
29504;SDS011;16452;54.174;12.092;2023-02-20T15:10:47;27.17;;;6.47;;
29504;SDS011;16452;54.174;12.092;2023-02-20T15:13:18;19.13;;;5.47;;
29504;SDS011;16452;54.174;12.092;2023-02-20T15:15:53;24.80;;;5.82;;
29504;SDS011;16452;54.174;12.092;2023-02-20T15:18:53;21.17;;;5.30;;
29504;SDS011;16452;54.174;12.092;2023-02-20T15:21:32;16.00;;;4.60;;
29504;SDS011;16452;54.174;12.092;2023-02-20T15:26:49;17.92;;;5.13;;
29504;SDS011;16452;54.174;12.092;2023-02-20T15:29:25;22.48;;;5.85;;
29504;SDS011;16452;54.174;12.092;2023-02-20T15:31:54;19.02;;;5.38;;
29504;SDS011;16452;54.174;12.092;2023-02-20T15:34:27;16.33;;;4.78;;
29504;SDS011;16452;54.174;12.092;2023-02-20T15:36:59;19.77;;;5.10;;
29504;SDS011;16452;54.174;12.092;2023-02-20T15:39:40;24.77;;;6.15;;
29504;SDS011;16452;54.174;12.092;2023-02-20T15:42:11;17.73;;;4.95;;
29504;SDS011;16452;54.174;12.092;2023-02-20T15:44:37;20.17;;;6.38;;
29504;SDS011;16452;54.174;12.092;2023-02-20T15:47:03;22.35;;;5.35;;
29504;SDS011;16452;54.174;12.092;2023-02-20T15:49:29;19.27;;;4.90;;
29504;SDS011;16452;54.174;12.092;2023-02-20T15:51:54;25.70;;;5.35;;
29504;SDS011;16452;54.174;12.092;2023-02-20T15:54:20;26.60;;;5.57;;
29504;SDS011;16452;54.174;12.092;2023-02-20T15:56:46;17.55;;;4.55;;
29504;SDS011;16452;54.174;12.092;2023-02-20T15:59:12;15.07;;;4.57;;
29504;SDS011;16452;54.174;12.092;2023-02-20T16:01:39;19.98;;;6.05;;
29504;SDS011;16452;54.174;12.092;2023-02-20T16:04:05;17.17;;;4.60;;
29504;SDS011;16452;54.174;12.092;2023-02-20T16:06:33;18.35;;;4.80;;
29504;SDS011;16452;54.174;12.092;2023-02-20T16:08:59;14.45;;;4.70;;
29504;SDS011;16452;54.174;12.092;2023-02-20T16:11:25;15.23;;;3.83;;
29504;SDS011;16452;54.174;12.092;2023-02-20T16:13:59;15.63;;;4.18;;
29504;SDS011;16452;54.174;12.092;2023-02-20T16:16:29;19.98;;;5.63;;
29504;SDS011;16452;54.174;12.092;2023-02-20T16:19:03;10.25;;;3.97;;
29504;SDS011;16452;54.174;12.092;2023-02-20T16:22:00;20.85;;;5.50;;
29504;SDS011;16452;54.174;12.092;2023-02-20T16:24:26;17.85;;;4.13;;
29504;SDS011;16452;54.174;12.092;2023-02-20T16:26:52;17.02;;;4.10;;
29504;SDS011;16452;54.174;12.092;2023-02-20T16:29:19;16.85;;;4.18;;
29504;SDS011;16452;54.174;12.092;2023-02-20T16:34:26;13.10;;;4.50;;
29504;SDS011;16452;54.174;12.092;2023-02-20T16:36:57;15.52;;;4.05;;
29504;SDS011;16452;54.174;12.092;2023-02-20T16:39:24;17.95;;;3.83;;
29504;SDS011;16452;54.174;12.092;2023-02-20T16:41:50;14.70;;;3.92;;
29504;SDS011;16452;54.174;12.092;2023-02-20T16:47:04;15.15;;;4.18;;
29504;SDS011;16452;54.174;12.092;2023-02-20T16:49:36;15.13;;;4.05;;
29504;SDS011;16452;54.174;12.092;2023-02-20T16:52:03;18.85;;;4.40;;
29504;SDS011;16452;54.174;12.092;2023-02-20T16:54:50;17.58;;;4.30;;
29504;SDS011;16452;54.174;12.092;2023-02-20T16:57:17;18.52;;;4.05;;
29504;SDS011;16452;54.174;12.092;2023-02-20T16:59:45;17.15;;;4.18;;
29504;SDS011;16452;54.174;12.092;2023-02-20T17:02:15;15.23;;;3.63;;
29504;SDS011;16452;54.174;12.092;2023-02-20T17:04:47;20.08;;;4.38;;
29504;SDS011;16452;54.174;12.092;2023-02-20T17:07:13;16.48;;;4.60;;
29504;SDS011;16452;54.174;12.092;2023-02-20T17:09:40;15.48;;;4.05;;
29504;SDS011;16452;54.174;12.092;2023-02-20T17:12:06;17.63;;;4.57;;
29504;SDS011;16452;54.174;12.092;2023-02-20T17:14:32;16.23;;;4.32;;
29504;SDS011;16452;54.174;12.092;2023-02-20T17:16:58;15.82;;;4.03;;
29504;SDS011;16452;54.174;12.092;2023-02-20T17:19:24;12.52;;;4.03;;
29504;SDS011;16452;54.174;12.092;2023-02-20T17:21:50;13.85;;;3.88;;
29504;SDS011;16452;54.174;12.092;2023-02-20T17:24:16;17.58;;;4.18;;
29504;SDS011;16452;54.174;12.092;2023-02-20T17:26:42;15.77;;;4.32;;
29504;SDS011;16452;54.174;12.092;2023-02-20T17:29:09;16.75;;;3.95;;
29504;SDS011;16452;54.174;12.092;2023-02-20T17:31:36;18.05;;;5.00;;
29504;SDS011;16452;54.174;12.092;2023-02-20T17:34:03;19.90;;;4.75;;
29504;SDS011;16452;54.174;12.092;2023-02-20T17:36:29;10.88;;;3.80;;